sensor_id;sensor_type;location;lat;lon;timestamp;pressure;altitude;pressure_sealevel;temperature;humidity
80180;BME280;69505;52.134;5.438;2023-08-07T00:00:35;101452.88;;;12.61;100.00
80180;BME280;69505;52.134;5.438;2023-08-07T00:03:02;101454.72;;;12.60;100.00
80180;BME280;69505;52.134;5.438;2023-08-07T00:05:29;101450.22;;;12.61;100.00
80180;BME280;69505;52.134;5.438;2023-08-07T00:07:56;101461.81;;;12.59;100.00
80180;BME280;69505;52.134;5.438;2023-08-07T00:10:23;101455.03;;;12.55;100.00
80180;BME280;69505;52.134;5.438;2023-08-07T00:12:50;101455.66;;;12.59;100.00
80180;BME280;69505;52.134;5.438;2023-08-07T00:15:17;101461.09;;;12.57;100.00
80180;BME280;69505;52.134;5.438;2023-08-07T00:17:44;101456.63;;;12.58;100.00
80180;BME280;69505;52.134;5.438;2023-08-07T00:20:11;101465.69;;;12.55;100.00
80180;BME280;69505;52.134;5.438;2023-08-07T00:22:40;101451.63;;;12.53;100.00
80180;BME280;69505;52.134;5.438;2023-08-07T00:25:10;101463.16;;;12.54;100.00
80180;BME280;69505;52.134;5.438;2023-08-07T00:27:36;101456.47;;;12.48;100.00
80180;BME280;69505;52.134;5.438;2023-08-07T00:30:03;101458.88;;;12.51;100.00
80180;BME280;69505;52.134;5.438;2023-08-07T00:32:32;101470.19;;;12.55;100.00
80180;BME280;69505;52.134;5.438;2023-08-07T00:35:06;101469.34;;;12.54;100.00
80180;BME280;69505;52.134;5.438;2023-08-07T00:37:34;101462.63;;;12.49;100.00
80180;BME280;69505;52.134;5.438;2023-08-07T00:40:01;101461.69;;;12.50;100.00
80180;BME280;69505;52.134;5.438;2023-08-07T00:42:28;101457.41;;;12.47;100.00
80180;BME280;69505;52.134;5.438;2023-08-07T00:44:55;101458.88;;;12.51;100.00
80180;BME280;69505;52.134;5.438;2023-08-07T00:47:22;101468.50;;;12.54;100.00
80180;BME280;69505;52.134;5.438;2023-08-07T00:49:48;101465.94;;;12.52;100.00
80180;BME280;69505;52.134;5.438;2023-08-07T00:52:15;101464.00;;;12.54;100.00
80180;BME280;69505;52.134;5.438;2023-08-07T00:54:45;101460.50;;;12.54;100.00
80180;BME280;69505;52.134;5.438;2023-08-07T00:57:14;101464.09;;;12.53;100.00
80180;BME280;69505;52.134;5.438;2023-08-07T00:59:41;101458.69;;;12.54;100.00
80180;BME280;69505;52.134;5.438;2023-08-07T01:02:09;101456.97;;;12.53;100.00
80180;BME280;69505;52.134;5.438;2023-08-07T01:04:36;101456.97;;;12.53;100.00
80180;BME280;69505;52.134;5.438;2023-08-07T01:07:03;101461.22;;;12.56;100.00
80180;BME280;69505;52.134;5.438;2023-08-07T01:09:30;101460.59;;;12.52;100.00
80180;BME280;69505;52.134;5.438;2023-08-07T01:12:09;101465.47;;;12.58;100.00
80180;BME280;69505;52.134;5.438;2023-08-07T01:17:33;101469.97;;;12.58;100.00
80180;BME280;69505;52.134;5.438;2023-08-07T01:20:01;101468.25;;;12.57;100.00
80180;BME280;69505;52.134;5.438;2023-08-07T01:22:28;101464.84;;;12.55;100.00
80180;BME280;69505;52.134;5.438;2023-08-07T01:24:55;101472.09;;;12.53;100.00
80180;BME280;69505;52.134;5.438;2023-08-07T01:27:35;101472.09;;;12.53;100.00
80180;BME280;69505;52.134;5.438;2023-08-07T01:35:46;101468.25;;;12.57;100.00
80180;BME280;69505;52.134;5.438;2023-08-07T01:38:14;101476.34;;;12.55;100.00
80180;BME280;69505;52.134;5.438;2023-08-07T01:40:42;101483.41;;;12.56;100.00
80180;BME280;69505;52.134;5.438;2023-08-07T01:43:09;101485.94;;;12.58;100.00
80180;BME280;69505;52.134;5.438;2023-08-07T01:45:35;101482.19;;;12.61;100.00
80180;BME280;69505;52.134;5.438;2023-08-07T01:48:02;101467.91;;;12.62;100.00
80180;BME280;69505;52.134;5.438;2023-08-07T01:50:29;101475.88;;;12.62;100.00
80180;BME280;69505;52.134;5.438;2023-08-07T01:52:56;101474.59;;;12.67;100.00
80180;BME280;69505;52.134;5.438;2023-08-07T01:55:23;101477.50;;;12.64;100.00
80180;BME280;69505;52.134;5.438;2023-08-07T01:57:50;101473.75;;;12.67;100.00
80180;BME280;69505;52.134;5.438;2023-08-07T02:00:17;101480.91;;;12.66;100.00
80180;BME280;69505;52.134;5.438;2023-08-07T02:02:44;101482.69;;;12.66;100.00
80180;BME280;69505;52.134;5.438;2023-08-07T02:05:14;101479.28;;;12.64;100.00
80180;BME280;69505;52.134;5.438;2023-08-07T02:07:42;101482.94;;;12.63;100.00
80180;BME280;69505;52.134;5.438;2023-08-07T02:10:09;101479.44;;;12.62;100.00
80180;BME280;69505;52.134;5.438;2023-08-07T02:12:35;101490.69;;;12.66;100.00
80180;BME280;69505;52.134;5.438;2023-08-07T02:15:03;101498.69;;;12.66;100.00
80180;BME280;69505;52.134;5.438;2023-08-07T02:17:30;101492.28;;;12.68;100.00
80180;BME280;69505;52.134;5.438;2023-08-07T02:19:57;101495.91;;;12.67;100.00
80180;BME280;69505;52.134;5.438;2023-08-07T02:22:24;101494.34;;;12.65;100.00
80180;BME280;69505;52.134;5.438;2023-08-07T02:24:51;101498.69;;;12.66;100.00
80180;BME280;69505;52.134;5.438;2023-08-07T02:27:17;101495.28;;;12.64;100.00
80180;BME280;69505;52.134;5.438;2023-08-07T02:29:44;101503.41;;;12.62;100.00
80180;BME280;69505;52.134;5.438;2023-08-07T02:32:11;101489.22;;;12.62;100.00
80180;BME280;69505;52.134;5.438;2023-08-07T02:34:37;101494.69;;;12.60;100.00
80180;BME280;69505;52.134;5.438;2023-08-07T02:37:04;101484.97;;;12.59;100.00
80180;BME280;69505;52.134;5.438;2023-08-07T02:39:31;101500.41;;;12.67;100.00
80180;BME280;69505;52.134;5.438;2023-08-07T02:41:58;101504.00;;;12.66;100.00
80180;BME280;69505;52.134;5.438;2023-08-07T02:44:24;101501.47;;;12.64;100.00
80180;BME280;69505;52.134;5.438;2023-08-07T02:46:51;101511.06;;;12.67;100.00
80180;BME280;69505;52.134;5.438;2023-08-07T02:49:18;101499.41;;;12.68;100.00
80180;BME280;69505;52.134;5.438;2023-08-07T02:51:45;101497.63;;;12.68;100.00
80180;BME280;69505;52.134;5.438;2023-08-07T02:54:11;101495.28;;;12.64;100.00
80180;BME280;69505;52.134;5.438;2023-08-07T02:56:38;101492.75;;;12.62;100.00
80180;BME280;69505;52.134;5.438;2023-08-07T02:59:04;101497.94;;;12.64;100.00
80180;BME280;69505;52.134;5.438;2023-08-07T03:01:32;101496.00;;;12.66;100.00
80180;BME280;69505;52.134;5.438;2023-08-07T03:03:59;101502.31;;;12.65;100.00
80180;BME280;69505;52.134;5.438;2023-08-07T03:06:26;101505.09;;;12.63;100.00
80180;BME280;69505;52.134;5.438;2023-08-07T03:08:52;101495.53;;;12.61;100.00
80180;BME280;69505;52.134;5.438;2023-08-07T03:11:19;101497.94;;;12.64;100.00
80180;BME280;69505;52.134;5.438;2023-08-07T03:13:46;101483.28;;;12.58;100.00
80180;BME280;69505;52.134;5.438;2023-08-07T03:16:12;101490.09;;;12.62;100.00
80180;BME280;69505;52.134;5.438;2023-08-07T03:18:39;101488.38;;;12.61;100.00
80180;BME280;69505;52.134;5.438;2023-08-07T03:21:06;101489.56;;;12.57;100.00
80180;BME280;69505;52.134;5.438;2023-08-07T03:23:32;101490.41;;;12.57;100.00
80180;BME280;69505;52.134;5.438;2023-08-07T03:26:09;101482.41;;;12.57;100.00
80180;BME280;69505;52.134;5.438;2023-08-07T03:28:39;101488.72;;;12.56;100.00
80180;BME280;69505;52.134;5.438;2023-08-07T03:31:06;101490.41;;;12.57;100.00
80180;BME280;69505;52.134;5.438;2023-08-07T03:33:33;101486.16;;;12.55;100.00
80180;BME280;69505;52.134;5.438;2023-08-07T03:36:00;101482.66;;;12.54;100.00
80180;BME280;69505;52.134;5.438;2023-08-07T03:38:26;101487.34;;;12.51;100.00
80180;BME280;69505;52.134;5.438;2023-08-07T03:40:53;101478.53;;;12.50;100.00
80180;BME280;69505;52.134;5.438;2023-08-07T03:43:19;101480.22;;;12.51;100.00
80180;BME280;69505;52.134;5.438;2023-08-07T03:45:46;101488.94;;;12.53;100.00
80180;BME280;69505;52.134;5.438;2023-08-07T03:48:13;101488.94;;;12.53;100.00
80180;BME280;69505;52.134;5.438;2023-08-07T03:50:40;101478.28;;;12.53;100.00
80180;BME280;69505;52.134;5.438;2023-08-07T03:53:07;101466.03;;;12.51;100.00
80180;BME280;69505;52.134;5.438;2023-08-07T03:55:35;101475.75;;;12.52;100.00
80180;BME280;69505;52.134;5.438;2023-08-07T03:58:02;101493.06;;;12.57;100.00
80180;BME280;69505;52.134;5.438;2023-08-07T04:00:29;101485.22;;;12.56;100.00
80180;BME280;69505;52.134;5.438;2023-08-07T04:02:55;101487.63;;;12.59;100.00
80180;BME280;69505;52.134;5.438;2023-08-07T04:05:22;101488.25;;;12.63;100.00
80180;BME280;69505;52.134;5.438;2023-08-07T04:07:49;101484.97;;;12.59;100.00
80180;BME280;69505;52.134;5.438;2023-08-07T04:10:16;101493.59;;;12.63;100.00
80180;BME280;69505;52.134;5.438;2023-08-07T04:12:43;101478.81;;;12.58;100.00
80180;BME280;69505;52.134;5.438;2023-08-07T04:15:10;101484.50;;;12.65;100.00
80180;BME280;69505;52.134;5.438;2023-08-07T04:17:36;101495.06;;;12.67;100.00
80180;BME280;69505;52.134;5.438;2023-08-07T04:20:04;101491.41;;;12.68;100.00
80180;BME280;69505;52.134;5.438;2023-08-07T04:22:33;101502.81;;;12.70;100.00
80180;BME280;69505;52.134;5.438;2023-08-07T04:25:00;101489.94;;;12.64;100.00
80180;BME280;69505;52.134;5.438;2023-08-07T04:27:26;101501.97;;;12.69;100.00
80180;BME280;69505;52.134;5.438;2023-08-07T04:29:53;101508.28;;;12.68;100.00
80180;BME280;69505;52.134;5.438;2023-08-07T04:32:20;101503.28;;;12.64;100.00
80180;BME280;69505;52.134;5.438;2023-08-07T04:34:48;101500.41;;;12.67;100.00
80180;BME280;69505;52.134;5.438;2023-08-07T04:37:18;101509.13;;;12.69;100.00
80180;BME280;69505;52.134;5.438;2023-08-07T04:39:44;101503.41;;;12.62;100.00
80180;BME280;69505;52.134;5.438;2023-08-07T04:42:11;101518.06;;;12.68;100.00
80180;BME280;69505;52.134;5.438;2023-08-07T04:44:38;101523.31;;;12.69;100.00
80180;BME280;69505;52.134;5.438;2023-08-07T04:47:05;101518.94;;;12.68;100.00
80180;BME280;69505;52.134;5.438;2023-08-07T04:49:35;101528.28;;;12.74;100.00
80180;BME280;69505;52.134;5.438;2023-08-07T04:52:06;101529.38;;;12.71;100.00
80180;BME280;69505;52.134;5.438;2023-08-07T04:54:51;101524.28;;;12.68;100.00
80180;BME280;69505;52.134;5.438;2023-08-07T05:01:08;101529.75;;;12.78;100.00
80180;BME280;69505;52.134;5.438;2023-08-07T05:03:35;101538.72;;;12.77;100.00
80180;BME280;69505;52.134;5.438;2023-08-07T05:06:05;101538.72;;;12.77;100.00
80180;BME280;69505;52.134;5.438;2023-08-07T05:08:36;101534.44;;;12.74;100.00
80180;BME280;69505;52.134;5.438;2023-08-07T05:11:03;101536.16;;;12.75;100.00
80180;BME280;69505;52.134;5.438;2023-08-07T05:13:29;101548.94;;;12.83;100.00
80180;BME280;69505;52.134;5.438;2023-08-07T05:15:56;101571.84;;;12.86;100.00
80180;BME280;69505;52.134;5.438;2023-08-07T05:18:23;101568.34;;;12.85;100.00
80180;BME280;69505;52.134;5.438;2023-08-07T05:20:49;101569.28;;;12.84;100.00
80180;BME280;69505;52.134;5.438;2023-08-07T05:23:16;101574.63;;;12.84;100.00
80180;BME280;69505;52.134;5.438;2023-08-07T05:25:45;101577.28;;;12.84;100.00
80180;BME280;69505;52.134;5.438;2023-08-07T05:28:15;101578.13;;;12.85;100.00
80180;BME280;69505;52.134;5.438;2023-08-07T05:30:42;101579.84;;;12.86;100.00
80180;BME280;69505;52.134;5.438;2023-08-07T05:33:08;101577.91;;;12.88;100.00
80180;BME280;69505;52.134;5.438;2023-08-07T05:35:37;101571.72;;;12.87;100.00
80180;BME280;69505;52.134;5.438;2023-08-07T05:38:04;101583.13;;;12.89;100.00
80180;BME280;69505;52.134;5.438;2023-08-07T05:40:31;101582.25;;;12.89;100.00
80180;BME280;69505;52.134;5.438;2023-08-07T05:42:58;101580.47;;;12.89;100.00
80180;BME280;69505;52.134;5.438;2023-08-07T05:45:24;101587.25;;;12.93;100.00
80180;BME280;69505;52.134;5.438;2023-08-07T05:47:51;101583.75;;;12.93;100.00
80180;BME280;69505;52.134;5.438;2023-08-07T05:50:17;101598.66;;;12.95;100.00
80180;BME280;69505;52.134;5.438;2023-08-07T05:52:44;101592.38;;;12.96;100.00
80180;BME280;69505;52.134;5.438;2023-08-07T05:55:11;101594.06;;;12.97;100.00
80180;BME280;69505;52.134;5.438;2023-08-07T05:57:37;101591.63;;;12.94;100.00
80180;BME280;69505;52.134;5.438;2023-08-07T06:00:04;101590.53;;;12.97;100.00
80180;BME280;69505;52.134;5.438;2023-08-07T06:02:31;101587.88;;;12.97;100.00
80180;BME280;69505;52.134;5.438;2023-08-07T06:04:58;101590.19;;;13.02;100.00
80180;BME280;69505;52.134;5.438;2023-08-07T06:07:25;101596.78;;;13.09;100.00
80180;BME280;69505;52.134;5.438;2023-08-07T06:09:52;101595.81;;;13.10;100.00
80180;BME280;69505;52.134;5.438;2023-08-07T06:12:19;101596.53;;;13.12;100.00
80180;BME280;69505;52.134;5.438;2023-08-07T06:14:46;101599.09;;;13.13;100.00
80180;BME280;69505;52.134;5.438;2023-08-07T06:17:17;101597.28;;;13.14;100.00
80180;BME280;69505;52.134;5.438;2023-08-07T06:27:27;101609.31;;;13.55;100.00
80180;BME280;69505;52.134;5.438;2023-08-07T06:40:03;101626.72;;;14.06;100.00
80180;BME280;69505;52.134;5.438;2023-08-07T06:46:53;101635.81;;;14.14;99.99
80180;BME280;69505;52.134;5.438;2023-08-07T06:49:20;101639.00;;;14.19;100.00
80180;BME280;69505;52.134;5.438;2023-08-07T06:56:05;101645.41;;;14.39;98.24
80180;BME280;69505;52.134;5.438;2023-08-07T06:58:35;101643.34;;;14.32;97.85
80180;BME280;69505;52.134;5.438;2023-08-07T07:01:02;101643.09;;;14.46;98.28
80180;BME280;69505;52.134;5.438;2023-08-07T07:03:29;101644.06;;;14.56;96.33
80180;BME280;69505;52.134;5.438;2023-08-07T07:05:55;101641.97;;;14.71;95.96
80180;BME280;69505;52.134;5.438;2023-08-07T07:08:22;101662.38;;;14.84;97.02
80180;BME280;69505;52.134;5.438;2023-08-07T07:10:49;101650.72;;;14.85;96.67
80180;BME280;69505;52.134;5.438;2023-08-07T07:13:16;101657.75;;;14.86;95.13
80180;BME280;69505;52.134;5.438;2023-08-07T07:15:44;101671.75;;;14.78;93.92
80180;BME280;69505;52.134;5.438;2023-08-07T07:18:10;101671.28;;;14.50;92.17
80180;BME280;69505;52.134;5.438;2023-08-07T07:20:38;101669.34;;;14.30;93.39
80180;BME280;69505;52.134;5.438;2023-08-07T07:23:05;101677.34;;;14.18;95.11
80180;BME280;69505;52.134;5.438;2023-08-07T07:25:31;101685.38;;;14.07;95.27
80180;BME280;69505;52.134;5.438;2023-08-07T07:27:58;101689.25;;;14.03;96.55
80180;BME280;69505;52.134;5.438;2023-08-07T07:30:24;101684.91;;;14.13;95.14
80180;BME280;69505;52.134;5.438;2023-08-07T07:32:51;101693.38;;;14.30;96.12
80180;BME280;69505;52.134;5.438;2023-08-07T07:35:18;101694.59;;;14.26;94.59
80180;BME280;69505;52.134;5.438;2023-08-07T07:37:45;101698.75;;;14.41;95.54
80180;BME280;69505;52.134;5.438;2023-08-07T07:40:11;101693.91;;;14.69;94.14
80180;BME280;69505;52.134;5.438;2023-08-07T07:42:39;101702.94;;;15.00;91.53
80180;BME280;69505;52.134;5.438;2023-08-07T07:45:05;101705.63;;;15.00;93.82
80180;BME280;69505;52.134;5.438;2023-08-07T07:47:32;101706.81;;;15.07;94.51
80180;BME280;69505;52.134;5.438;2023-08-07T07:50:09;101700.84;;;15.15;91.87
80180;BME280;69505;52.134;5.438;2023-08-07T07:52:37;101702.94;;;15.43;90.29
80180;BME280;69505;52.134;5.438;2023-08-07T07:55:04;101703.69;;;15.67;90.33
80180;BME280;69505;52.134;5.438;2023-08-07T07:57:31;101710.22;;;15.95;90.75
80180;BME280;69505;52.134;5.438;2023-08-07T07:59:58;101716.91;;;15.68;90.41
80180;BME280;69505;52.134;5.438;2023-08-07T08:02:24;101707.03;;;15.27;92.96
80180;BME280;69505;52.134;5.438;2023-08-07T08:04:51;101715.97;;;14.93;92.48
80180;BME280;69505;52.134;5.438;2023-08-07T08:07:18;101726.69;;;14.82;92.97
80180;BME280;69505;52.134;5.438;2023-08-07T08:09:45;101734.34;;;14.75;93.46
80180;BME280;69505;52.134;5.438;2023-08-07T08:12:12;101739.13;;;14.60;94.33
80180;BME280;69505;52.134;5.438;2023-08-07T08:17:14;101738.59;;;14.44;94.83
80180;BME280;69505;52.134;5.438;2023-08-07T08:25:19;101747.50;;;14.78;94.90
80180;BME280;69505;52.134;5.438;2023-08-07T08:33:43;101747.59;;;17.97;78.49
80180;BME280;69505;52.134;5.438;2023-08-07T08:36:10;101745.75;;;19.10;79.08
80180;BME280;69505;52.134;5.438;2023-08-07T08:38:37;101738.59;;;19.91;70.97
80180;BME280;69505;52.134;5.438;2023-08-07T08:41:28;101738.56;;;20.35;72.23
80180;BME280;69505;52.134;5.438;2023-08-07T08:43:55;101747.19;;;20.64;68.88
80180;BME280;69505;52.134;5.438;2023-08-07T08:46:25;101749.00;;;20.30;71.31
80180;BME280;69505;52.134;5.438;2023-08-07T08:49:14;101746.09;;;20.57;68.64
80180;BME280;69505;52.134;5.438;2023-08-07T08:51:42;101756.41;;;19.47;65.92
80180;BME280;69505;52.134;5.438;2023-08-07T08:54:09;101756.38;;;17.80;71.72
80180;BME280;69505;52.134;5.438;2023-08-07T08:56:45;101769.06;;;17.10;74.82
80180;BME280;69505;52.134;5.438;2023-08-07T08:59:12;101770.53;;;16.83;77.70
80180;BME280;69505;52.134;5.438;2023-08-07T09:01:38;101781.94;;;16.23;81.25
80180;BME280;69505;52.134;5.438;2023-08-07T09:04:05;101780.63;;;15.97;81.88
80180;BME280;69505;52.134;5.438;2023-08-07T09:06:32;101792.31;;;15.63;81.34
80180;BME280;69505;52.134;5.438;2023-08-07T09:09:00;101788.16;;;15.71;82.87
80180;BME280;69505;52.134;5.438;2023-08-07T09:11:27;101780.75;;;15.95;80.92
80180;BME280;69505;52.134;5.438;2023-08-07T09:13:55;101777.81;;;16.19;82.74
80180;BME280;69505;52.134;5.438;2023-08-07T09:16:24;101786.88;;;16.80;76.97
80180;BME280;69505;52.134;5.438;2023-08-07T09:18:52;101788.16;;;17.26;81.26
80180;BME280;69505;52.134;5.438;2023-08-07T09:21:21;101797.00;;;17.07;76.79
80180;BME280;69505;52.134;5.438;2023-08-07T09:23:48;101788.88;;;17.57;77.42
80180;BME280;69505;52.134;5.438;2023-08-07T09:26:21;101799.38;;;18.19;73.92
80180;BME280;69505;52.134;5.438;2023-08-07T09:28:51;101794.31;;;19.00;70.27
80180;BME280;69505;52.134;5.438;2023-08-07T09:31:17;101791.38;;;19.21;73.92
80180;BME280;69505;52.134;5.438;2023-08-07T09:33:47;101789.56;;;18.75;71.34
80180;BME280;69505;52.134;5.438;2023-08-07T09:36:15;101791.63;;;18.63;72.88
80180;BME280;69505;52.134;5.438;2023-08-07T09:38:41;101797.97;;;17.95;74.59
80180;BME280;69505;52.134;5.438;2023-08-07T09:41:08;101796.25;;;17.45;75.71
80180;BME280;69505;52.134;5.438;2023-08-07T09:43:35;101794.81;;;17.22;76.36
80180;BME280;69505;52.134;5.438;2023-08-07T09:46:03;101795.44;;;17.04;77.82
80180;BME280;69505;52.134;5.438;2023-08-07T09:48:30;101798.56;;;16.79;75.48
80180;BME280;69505;52.134;5.438;2023-08-07T09:51:00;101798.38;;;16.61;79.81
80180;BME280;69505;52.134;5.438;2023-08-07T09:53:30;101807.00;;;16.43;79.86
80180;BME280;69505;52.134;5.438;2023-08-07T09:55:57;101812.50;;;16.42;79.18
80180;BME280;69505;52.134;5.438;2023-08-07T09:58:24;101820.75;;;16.50;77.68
80180;BME280;69505;52.134;5.438;2023-08-07T10:00:51;101819.03;;;16.70;76.90
80180;BME280;69505;52.134;5.438;2023-08-07T10:03:19;101829.38;;;17.06;76.17
80180;BME280;69505;52.134;5.438;2023-08-07T10:05:46;101835.63;;;16.85;75.27
80180;BME280;69505;52.134;5.438;2023-08-07T10:08:13;101838.84;;;16.58;74.58
80180;BME280;69505;52.134;5.438;2023-08-07T10:10:39;101838.25;;;16.54;79.35
80180;BME280;69505;52.134;5.438;2023-08-07T10:13:07;101834.63;;;16.55;75.81
80180;BME280;69505;52.134;5.438;2023-08-07T10:15:33;101843.00;;;16.41;78.15
80180;BME280;69505;52.134;5.438;2023-08-07T10:18:03;101838.03;;;16.36;76.37
80180;BME280;69505;52.134;5.438;2023-08-07T10:20:31;101836.97;;;16.70;77.66
80180;BME280;69505;52.134;5.438;2023-08-07T10:23:07;101834.22;;;16.81;75.42
80180;BME280;69505;52.134;5.438;2023-08-07T10:25:35;101834.72;;;17.56;76.40
80180;BME280;69505;52.134;5.438;2023-08-07T10:28:06;101848.31;;;17.64;78.48
80180;BME280;69505;52.134;5.438;2023-08-07T10:30:34;101833.16;;;17.63;74.90
80180;BME280;69505;52.134;5.438;2023-08-07T10:33:02;101834.31;;;17.70;75.59
80180;BME280;69505;52.134;5.438;2023-08-07T10:35:31;101835.31;;;18.18;77.15
80180;BME280;69505;52.134;5.438;2023-08-07T10:38:08;101834.00;;;18.41;74.44
80180;BME280;69505;52.134;5.438;2023-08-07T10:41:01;101839.50;;;18.59;71.07
80180;BME280;69505;52.134;5.438;2023-08-07T10:43:29;101847.63;;;18.40;71.80
80180;BME280;69505;52.134;5.438;2023-08-07T10:46:06;101845.06;;;17.70;74.05
80180;BME280;69505;52.134;5.438;2023-08-07T10:48:41;101846.28;;;17.37;71.98
80180;BME280;69505;52.134;5.438;2023-08-07T10:51:07;101848.88;;;17.08;72.80
80180;BME280;69505;52.134;5.438;2023-08-07T10:53:40;101846.19;;;17.08;72.87
80180;BME280;69505;52.134;5.438;2023-08-07T10:56:15;101843.75;;;17.55;75.77
80180;BME280;69505;52.134;5.438;2023-08-07T10:58:47;101838.72;;;18.20;71.39
80180;BME280;69505;52.134;5.438;2023-08-07T11:01:19;101838.00;;;18.75;71.58
80180;BME280;69505;52.134;5.438;2023-08-07T11:03:52;101850.78;;;18.73;69.48
80180;BME280;69505;52.134;5.438;2023-08-07T11:06:24;101845.78;;;18.01;68.36
80180;BME280;69505;52.134;5.438;2023-08-07T11:08:55;101853.97;;;17.80;74.73
80180;BME280;69505;52.134;5.438;2023-08-07T11:11:21;101856.78;;;17.69;73.61
80180;BME280;69505;52.134;5.438;2023-08-07T11:13:48;101864.63;;;17.22;73.18
80180;BME280;69505;52.134;5.438;2023-08-07T11:16:15;101864.03;;;17.28;75.38
80180;BME280;69505;52.134;5.438;2023-08-07T11:18:42;101861.94;;;17.92;75.13
80180;BME280;69505;52.134;5.438;2023-08-07T11:21:10;101855.72;;;17.91;71.03
80180;BME280;69505;52.134;5.438;2023-08-07T11:23:41;101869.69;;;17.75;74.40
80180;BME280;69505;52.134;5.438;2023-08-07T11:26:09;101870.69;;;17.84;72.68
80180;BME280;69505;52.134;5.438;2023-08-07T11:28:36;101876.09;;;18.13;71.39
80180;BME280;69505;52.134;5.438;2023-08-07T11:31:02;101865.63;;;18.10;69.21
80180;BME280;69505;52.134;5.438;2023-08-07T11:33:29;101858.50;;;18.48;69.37
80180;BME280;69505;52.134;5.438;2023-08-07T11:35:56;101875.56;;;18.86;71.80
80180;BME280;69505;52.134;5.438;2023-08-07T11:38:33;101870.31;;;18.84;68.93
80180;BME280;69505;52.134;5.438;2023-08-07T11:41:01;101864.47;;;18.42;67.21
80180;BME280;69505;52.134;5.438;2023-08-07T11:43:29;101866.09;;;18.62;70.43
80180;BME280;69505;52.134;5.438;2023-08-07T11:45:58;101870.72;;;19.27;70.73
80180;BME280;69505;52.134;5.438;2023-08-07T11:48:31;101862.91;;;19.52;66.20
80180;BME280;69505;52.134;5.438;2023-08-07T11:50:59;101860.22;;;19.52;61.79
80180;BME280;69505;52.134;5.438;2023-08-07T11:53:28;101857.94;;;19.29;66.93
80180;BME280;69505;52.134;5.438;2023-08-07T11:55:55;101859.66;;;19.76;63.96
80180;BME280;69505;52.134;5.438;2023-08-07T11:58:23;101861.59;;;19.83;63.54
80180;BME280;69505;52.134;5.438;2023-08-07T12:00:50;101858.75;;;19.85;63.80
80180;BME280;69505;52.134;5.438;2023-08-07T12:03:31;101866.28;;;20.17;66.73
80180;BME280;69505;52.134;5.438;2023-08-07T12:06:03;101856.97;;;19.94;62.67
80180;BME280;69505;52.134;5.438;2023-08-07T12:08:39;101862.59;;;20.18;62.13
80180;BME280;69505;52.134;5.438;2023-08-07T12:11:15;101861.63;;;20.27;62.21
80180;BME280;69505;52.134;5.438;2023-08-07T12:13:43;101853.19;;;20.22;61.75
80180;BME280;69505;52.134;5.438;2023-08-07T12:16:11;101847.81;;;19.86;62.18
80180;BME280;69505;52.134;5.438;2023-08-07T12:18:49;101850.44;;;19.51;65.47
80180;BME280;69505;52.134;5.438;2023-08-07T12:21:18;101856.22;;;20.01;61.12
80180;BME280;69505;52.134;5.438;2023-08-07T12:23:51;101854.38;;;19.56;56.49
80180;BME280;69505;52.134;5.438;2023-08-07T12:26:20;101861.53;;;19.93;60.65
80180;BME280;69505;52.134;5.438;2023-08-07T12:28:47;101862.00;;;19.61;55.70
80180;BME280;69505;52.134;5.438;2023-08-07T12:31:14;101865.34;;;19.91;57.75
80180;BME280;69505;52.134;5.438;2023-08-07T12:33:40;101862.88;;;20.33;55.53
80180;BME280;69505;52.134;5.438;2023-08-07T12:36:07;101861.09;;;20.24;59.02
80180;BME280;69505;52.134;5.438;2023-08-07T12:38:45;101862.69;;;20.35;56.16
80180;BME280;69505;52.134;5.438;2023-08-07T12:41:13;101867.78;;;20.38;54.14
80180;BME280;69505;52.134;5.438;2023-08-07T12:43:43;101858.31;;;20.16;53.04
80180;BME280;69505;52.134;5.438;2023-08-07T12:46:10;101868.56;;;20.30;54.97
80180;BME280;69505;52.134;5.438;2023-08-07T12:48:39;101862.38;;;19.94;55.36
80180;BME280;69505;52.134;5.438;2023-08-07T12:51:06;101865.97;;;20.20;58.55
80180;BME280;69505;52.134;5.438;2023-08-07T12:53:32;101854.09;;;20.57;57.10
80180;BME280;69505;52.134;5.438;2023-08-07T12:55:59;101848.78;;;20.65;56.43
80180;BME280;69505;52.134;5.438;2023-08-07T12:58:25;101845.56;;;20.96;50.84
80180;BME280;69505;52.134;5.438;2023-08-07T13:00:55;101849.31;;;21.03;55.75
80180;BME280;69505;52.134;5.438;2023-08-07T13:03:22;101847.03;;;21.25;52.79
80180;BME280;69505;52.134;5.438;2023-08-07T13:05:49;101854.41;;;21.06;54.65
80180;BME280;69505;52.134;5.438;2023-08-07T13:08:15;101856.88;;;20.92;52.20
80180;BME280;69505;52.134;5.438;2023-08-07T13:10:42;101870.91;;;20.51;53.64
80180;BME280;69505;52.134;5.438;2023-08-07T13:13:08;101872.00;;;20.14;53.01
80180;BME280;69505;52.134;5.438;2023-08-07T13:15:35;101866.41;;;20.78;55.62
80180;BME280;69505;52.134;5.438;2023-08-07T13:18:02;101861.19;;;21.11;50.78
80180;BME280;69505;52.134;5.438;2023-08-07T13:20:29;101863.88;;;21.11;51.10
80180;BME280;69505;52.134;5.438;2023-08-07T13:23:00;101863.50;;;21.05;52.44
80180;BME280;69505;52.134;5.438;2023-08-07T13:25:27;101868.25;;;21.12;50.70
80180;BME280;69505;52.134;5.438;2023-08-07T13:27:54;101866.69;;;21.01;50.62
80180;BME280;69505;52.134;5.438;2023-08-07T13:30:21;101868.25;;;21.12;50.44
80180;BME280;69505;52.134;5.438;2023-08-07T13:32:47;101873.91;;;20.92;50.10
80180;BME280;69505;52.134;5.438;2023-08-07T13:35:14;101882.44;;;20.79;51.42
80180;BME280;69505;52.134;5.438;2023-08-07T13:37:41;101868.38;;;21.02;54.05
80180;BME280;69505;52.134;5.438;2023-08-07T13:40:08;101863.06;;;21.69;52.60
80180;BME280;69505;52.134;5.438;2023-08-07T13:42:34;101868.09;;;21.56;52.56